createdAt,value
2023-02-12T00:00:44.306Z,103982.00
2023-02-12T00:03:11.045Z,103988.31
2023-02-12T00:05:38.909Z,103981.41
2023-02-12T00:08:05.665Z,103988.31
2023-02-12T00:10:38.839Z,103986.25
2023-02-12T00:13:05.842Z,103983.41
2023-02-12T00:15:32.212Z,103986.06
2023-02-12T00:17:58.557Z,103984.22
2023-02-12T00:20:24.936Z,103982.56
2023-02-12T00:22:52.560Z,103986.06
2023-02-12T00:25:19.246Z,103986.25
2023-02-12T00:27:45.779Z,103982.78
2023-02-12T00:30:12.483Z,103986.25
2023-02-12T00:32:38.873Z,103980.97
2023-02-12T00:35:05.385Z,103986.25
2023-02-12T00:37:31.843Z,103984.63
2023-02-12T00:39:58.200Z,103983.81
2023-02-12T00:42:24.528Z,103987.88
2023-02-12T00:44:50.930Z,103991.34
2023-02-12T00:47:17.255Z,103989.50
2023-02-12T00:49:43.646Z,103990.31
2023-02-12T00:52:09.988Z,103985.03
2023-02-12T00:54:36.432Z,103982.56
2023-02-12T00:57:06.443Z,103984.63
2023-02-12T00:59:36.086Z,103979.78
2023-02-12T01:02:02.469Z,103987.13
2023-02-12T01:04:28.791Z,103983.09
2023-02-12T01:06:55.394Z,103986.75
2023-02-12T01:09:21.983Z,103986.94
2023-02-12T01:11:48.332Z,103983.94
2023-02-12T01:14:14.639Z,103989.25
2023-02-12T01:16:41.144Z,103981.13
2023-02-12T01:19:07.477Z,103987.25
2023-02-12T01:21:36.581Z,103986.78
2023-02-12T01:24:03.248Z,103985.97
2023-02-12T01:26:31.012Z,103981.72
2023-02-12T01:29:01.334Z,103984.16
2023-02-12T01:31:30.414Z,103990.47
2023-02-12T01:33:59.811Z,103985.97
2023-02-12T01:36:27.796Z,103985.19
2023-02-12T01:38:54.810Z,103980.91
2023-02-12T01:41:27.425Z,103978.28
2023-02-12T01:44:22.777Z,103982.16
2023-02-12T01:47:00.210Z,103982.97
2023-02-12T01:49:31.690Z,103981.13
2023-02-12T01:52:05.224Z,103985.63
2023-02-12T01:54:34.169Z,103986.63
2023-02-12T01:57:02.634Z,103984.44
2023-02-12T01:59:30.867Z,103991.78
2023-02-12T02:01:57.787Z,103984.84
2023-02-12T02:04:29.276Z,103983.66
2023-02-12T02:07:06.476Z,103977.19
2023-02-12T02:09:35.995Z,103972.13
2023-02-12T02:12:21.058Z,103972.00
2023-02-12T02:14:49.197Z,103974.25
2023-02-12T02:17:34.356Z,103978.56
2023-02-12T02:20:01.495Z,103986.31
2023-02-12T02:22:37.841Z,103978.00
2023-02-12T02:25:28.658Z,103976.16
2023-02-12T02:28:16.885Z,103978.78
2023-02-12T02:31:00.733Z,103976.16
2023-02-12T02:33:34.406Z,103976.16
2023-02-12T02:36:09.630Z,103977.19
2023-02-12T02:38:44.292Z,103972.13
2023-02-12T02:41:23.743Z,103968.66
2023-02-12T02:43:52.389Z,103966.81
2023-02-12T02:46:32.599Z,103965.22
2023-02-12T02:49:04.576Z,103970.09
2023-02-12T02:51:36.260Z,103973.38
2023-02-12T02:54:13.682Z,103965.66
2023-02-12T02:56:44.876Z,103963.03
2023-02-12T02:59:37.521Z,103964.06
2023-02-12T03:02:13.779Z,103957.75
2023-02-12T03:04:47.928Z,103965.66
2023-02-12T03:07:26.008Z,103963.47
2023-02-12T03:10:12.102Z,103952.28
2023-02-12T03:12:44.963Z,103951.69
2023-02-12T03:15:19.394Z,103955.94
2023-02-12T03:17:47.884Z,103955.34
2023-02-12T03:20:22.661Z,103956.56
2023-02-12T03:22:54.582Z,103953.13
2023-02-12T03:25:28.390Z,103955.78
2023-02-12T03:28:02.437Z,103955.13
2023-02-12T03:30:42.073Z,103951.25
2023-02-12T03:33:19.587Z,103958.38
2023-02-12T03:36:02.457Z,103961.63
2023-02-12T03:38:41.850Z,103953.47
2023-02-12T03:41:15.139Z,103961.19
2023-02-12T03:44:02.009Z,103962.97
2023-02-12T03:46:50.697Z,103960.72
2023-02-12T03:49:27.258Z,103965.44
2023-02-12T03:51:53.947Z,103974.34
2023-02-12T03:54:21.860Z,103964.59
2023-02-12T03:57:09.836Z,103967.25
2023-02-12T03:59:38.249Z,103973.94
2023-02-12T04:02:05.045Z,103978.66
2023-02-12T04:04:32.238Z,103981.69
2023-02-12T04:06:58.997Z,103979.06
2023-02-12T04:09:27.773Z,103984.13
2023-02-12T04:12:26.877Z,103981.66
2023-02-12T04:15:16.027Z,103991.81
2023-02-12T04:17:51.522Z,103982.28
2023-02-12T04:20:50.327Z,103988.56
2023-02-12T04:23:25.809Z,103988.56
2023-02-12T04:26:23.795Z,103988.78
2023-02-12T04:29:10.133Z,103986.72
2023-02-12T04:31:44.163Z,103992.00
2023-02-12T04:34:30.739Z,103992.00
2023-02-12T04:37:04.078Z,103998.53
2023-02-12T04:39:34.341Z,103993.25
2023-02-12T04:42:02.021Z,103987.97
2023-02-12T04:44:33.789Z,104001.41
2023-02-12T04:47:00.697Z,103999.78
2023-02-12T04:49:27.620Z,103999.78
2023-02-12T04:51:54.031Z,104006.06
2023-02-12T04:54:21.327Z,104009.53
2023-02-12T04:56:48.264Z,104005.06
2023-02-12T04:59:15.153Z,103999.78
2023-02-12T05:01:43.021Z,104005.88
2023-02-12T05:04:12.372Z,103999.78
2023-02-12T05:06:39.516Z,104006.06
2023-02-12T05:09:07.585Z,104005.06
2023-02-12T05:11:33.931Z,104003.44
2023-02-12T05:14:00.674Z,104005.06
2023-02-12T05:16:27.395Z,104005.88
2023-02-12T05:18:53.729Z,104007.50
2023-02-12T05:21:20.038Z,104005.66
2023-02-12T05:23:46.397Z,104012.16
2023-02-12T05:26:22.062Z,104009.97
2023-02-12T05:28:48.488Z,104011.59
2023-02-12T05:31:20.769Z,104006.28
2023-02-12T05:33:48.771Z,104010.56
2023-02-12T05:36:18.325Z,104017.44
2023-02-12T05:38:44.692Z,104012.16
2023-02-12T05:41:14.121Z,104014.00
2023-02-12T05:43:46.067Z,104007.91
2023-02-12T05:46:14.296Z,104015.66
2023-02-12T05:48:41.153Z,104011.34
2023-02-12T05:51:10.663Z,104011.19
2023-02-12T05:53:38.311Z,104007.94
2023-02-12T05:56:26.103Z,104015.66
2023-02-12T05:58:55.787Z,104015.47
2023-02-12T06:01:27.809Z,104016.47
2023-02-12T06:03:55.069Z,104012.03
2023-02-12T06:06:21.819Z,104012.81
2023-02-12T06:08:49.278Z,104004.91
2023-02-12T06:11:16.791Z,104017.31
2023-02-12T06:13:43.992Z,104019.09
2023-02-12T06:16:22.382Z,104023.41
2023-02-12T06:18:49.609Z,104020.94
2023-02-12T06:21:16.808Z,104015.88
2023-02-12T06:23:43.354Z,104019.31
2023-02-12T06:26:10.301Z,104022.78
2023-02-12T06:28:36.846Z,104020.13
2023-02-12T06:31:03.474Z,104015.66
2023-02-12T06:33:32.544Z,104016.47
2023-02-12T06:36:03.500Z,104011.41
2023-02-12T06:38:29.817Z,104014.03
2023-02-12T06:40:56.168Z,104018.53
2023-02-12T06:43:22.521Z,104018.97
2023-02-12T06:45:48.866Z,104023.03
2023-02-12T06:48:15.185Z,104029.13
2023-02-12T06:50:41.482Z,104027.50
2023-02-12T06:53:07.903Z,104038.88
2023-02-12T06:55:34.788Z,104034.41
2023-02-12T06:58:01.097Z,104034.41
2023-02-12T07:00:27.740Z,104044.16
2023-02-12T07:02:55.604Z,104044.16
2023-02-12T07:05:23.169Z,104035.22
2023-02-12T07:07:49.700Z,104040.28
2023-02-12T07:10:17.203Z,104040.09
2023-02-12T07:12:43.610Z,104044.94
2023-02-12T07:15:15.457Z,104043.09
2023-02-12T07:17:42.051Z,104045.75
2023-02-12T07:20:08.875Z,104047.00
2023-02-12T07:22:38.423Z,104052.28
2023-02-12T07:25:05.223Z,104057.56
2023-02-12T07:27:31.611Z,104055.94
2023-02-12T07:29:57.953Z,104064.47
2023-02-12T07:32:24.314Z,104063.03
2023-02-12T07:34:50.679Z,104064.44
2023-02-12T07:37:22.401Z,104067.66
2023-02-12T07:39:49.497Z,104070.13
2023-02-12T07:42:15.838Z,104068.50
2023-02-12T07:44:42.128Z,104073.59
2023-02-12T07:47:08.464Z,104063.81
2023-02-12T07:49:34.984Z,104077.44
2023-02-12T07:52:03.158Z,104072.50
2023-02-12T07:54:34.016Z,104072.28
2023-02-12T07:57:00.639Z,104075.56
2023-02-12T07:59:27.030Z,104079.00
2023-02-12T08:01:53.675Z,104084.69
2023-02-12T08:04:25.174Z,104084.03
2023-02-12T08:06:54.234Z,104087.50
2023-02-12T08:09:30.879Z,104090.75
2023-02-12T08:11:58.168Z,104092.38
2023-02-12T08:14:24.765Z,104091.97
2023-02-12T08:16:51.661Z,104096.00
2023-02-12T08:19:22.554Z,104101.06
2023-02-12T08:21:52.829Z,104090.31
2023-02-12T08:24:20.035Z,104089.06
2023-02-12T08:26:46.842Z,104096.78
2023-02-12T08:29:16.473Z,104095.34
2023-02-12T08:31:47.576Z,104099.59
2023-02-12T08:34:25.577Z,104110.19
2023-02-12T08:36:56.509Z,104102.88
2023-02-12T08:39:24.686Z,104114.44
2023-02-12T08:41:51.892Z,104112.41
2023-02-12T08:44:18.515Z,104114.63
2023-02-12T08:46:46.974Z,104111.78
2023-02-12T08:49:18.986Z,104119.50
2023-02-12T08:51:50.741Z,104116.03
2023-02-12T08:54:21.194Z,104122.94
2023-02-12T08:56:47.610Z,104121.94
2023-02-12T08:59:15.169Z,104132.28
2023-02-12T09:01:42.796Z,104129.22
2023-02-12T09:04:18.674Z,104122.91
2023-02-12T09:06:46.552Z,104123.72
2023-02-12T09:09:13.793Z,104127.97
2023-02-12T09:11:41.097Z,104130.81
2023-02-12T09:14:10.830Z,104126.94
2023-02-12T09:16:39.600Z,104123.25
2023-02-12T09:19:06.686Z,104130.38
2023-02-12T09:21:33.411Z,104130.75
2023-02-12T09:24:01.406Z,104137.06
2023-02-12T09:26:27.777Z,104135.03
2023-02-12T09:28:54.968Z,104133.56
2023-02-12T09:31:29.675Z,104139.47
2023-02-12T09:34:00.533Z,104134.78
2023-02-12T09:36:28.022Z,104135.16
2023-02-12T09:38:54.768Z,104131.50
2023-02-12T09:41:26.770Z,104139.81
2023-02-12T09:44:11.831Z,104134.31
2023-02-12T09:46:38.139Z,104131.66
2023-02-12T09:49:10.276Z,104136.50
2023-02-12T09:51:39.994Z,104135.88
2023-02-12T09:54:11.730Z,104125.06
2023-02-12T09:56:41.604Z,104131.78
2023-02-12T09:59:08.834Z,104134.19
2023-02-12T10:01:35.669Z,104131.34
2023-02-12T10:04:04.872Z,104138.28
2023-02-12T10:06:41.631Z,104141.50
2023-02-12T10:09:29.197Z,104134.94
2023-02-12T10:12:19.082Z,104129.47
2023-02-12T10:15:02.788Z,104127.97
2023-02-12T10:17:48.813Z,104129.19
2023-02-12T10:20:31.582Z,104132.44
2023-02-12T10:23:08.068Z,104138.31
2023-02-12T10:26:01.275Z,104140.16
2023-02-12T10:28:39.236Z,104126.69
2023-02-12T10:31:12.959Z,104131.75
2023-02-12T10:33:43.812Z,104136.88
2023-02-12T10:36:25.112Z,104137.69
2023-02-12T10:38:58.245Z,104135.63
2023-02-12T10:41:28.172Z,104136.00
2023-02-12T10:43:54.539Z,104135.53
2023-02-12T10:46:20.898Z,104133.50
2023-02-12T10:48:54.011Z,104132.25
2023-02-12T10:51:56.531Z,104130.41
2023-02-12T10:54:49.065Z,104133.06
2023-02-12T10:57:27.407Z,104133.66
2023-02-12T10:59:57.344Z,104131.59
2023-02-12T11:02:30.870Z,104136.66
2023-02-12T11:04:59.175Z,104128.06
2023-02-12T11:07:27.432Z,104129.69
2023-02-12T11:09:55.716Z,104134.75
2023-02-12T11:12:48.002Z,104133.75
2023-02-12T11:15:17.584Z,104134.56
2023-02-12T11:17:55.001Z,104137.78
2023-02-12T11:20:28.156Z,104131.25
2023-02-12T11:23:03.920Z,104132.88
2023-02-12T11:25:34.023Z,104129.41
2023-02-12T11:28:19.056Z,104120.44
2023-02-12T11:31:22.263Z,104119.41
2023-02-12T11:34:12.094Z,104126.94
2023-02-12T11:36:44.893Z,104121.97
2023-02-12T11:39:22.862Z,104118.09
2023-02-12T11:41:53.659Z,104119.69
2023-02-12T11:44:35.302Z,104116.41
2023-02-12T11:47:16.587Z,104117.19
2023-02-12T11:49:59.678Z,104119.84
2023-02-12T11:52:31.125Z,104118.00
2023-02-12T11:55:01.359Z,104112.72
2023-02-12T11:57:49.682Z,104115.13
2023-02-12T12:00:42.075Z,104114.91
2023-02-12T12:03:11.304Z,104120.59
2023-02-12T12:05:45.890Z,104114.84
2023-02-12T12:08:29.689Z,104103.22
2023-02-12T12:11:11.068Z,104105.41
2023-02-12T12:13:44.501Z,104099.53
2023-02-12T12:16:34.694Z,104092.94
2023-02-12T12:19:34.754Z,104089.28
2023-02-12T12:22:09.227Z,104089.88
2023-02-12T12:24:53.425Z,104089.41
2023-02-12T12:27:58.571Z,104089.19
2023-02-12T12:30:40.763Z,104090.00
2023-02-12T12:33:19.904Z,104080.78
2023-02-12T12:36:32.776Z,104075.47
2023-02-12T12:39:05.282Z,104075.31
2023-02-12T12:41:47.935Z,104076.94
2023-02-12T12:44:57.147Z,104080.97
2023-02-12T12:47:40.509Z,104071.16
2023-02-12T12:50:12.813Z,104068.31
2023-02-12T12:52:51.159Z,104071.53
2023-02-12T12:55:32.865Z,104068.88
2023-02-12T12:58:28.249Z,104062.41
2023-02-12T13:01:18.888Z,104065.03
2023-02-12T13:04:37.419Z,104066.88
2023-02-12T13:07:19.937Z,104059.50
2023-02-12T13:09:49.977Z,104056.66
2023-02-12T13:12:37.174Z,104056.66
2023-02-12T13:15:37.620Z,104054.00
2023-02-12T13:18:14.205Z,104049.94
2023-02-12T13:20:49.669Z,104049.38
2023-02-12T13:23:45.905Z,104050.41
2023-02-12T13:26:23.881Z,104051.22
2023-02-12T13:28:59.008Z,104051.63
2023-02-12T13:31:33.385Z,104045.31
2023-02-12T13:34:07.373Z,104047.97
2023-02-12T13:36:40.624Z,104048.78
2023-02-12T13:39:15.625Z,104040.84
2023-02-12T13:41:47.897Z,104041.66
2023-02-12T13:44:32.516Z,104037.34
2023-02-12T13:47:40.784Z,104039.78
2023-02-12T13:50:32.507Z,104039.00
2023-02-12T13:53:06.544Z,104028.38
2023-02-12T13:56:01.998Z,104030.81
2023-02-12T13:58:31.645Z,104026.31
2023-02-12T14:01:04.458Z,104019.97
2023-02-12T14:03:31.845Z,104018.59
2023-02-12T14:06:20.360Z,104024.75
2023-02-12T14:08:51.195Z,104032.91
2023-02-12T14:11:20.576Z,104016.19
2023-02-12T14:13:58.554Z,104026.00
2023-02-12T14:16:30.827Z,104012.16
2023-02-12T14:19:34.546Z,104021.59
2023-02-12T14:22:02.488Z,104014.69
2023-02-12T14:24:38.107Z,104013.88
2023-02-12T14:27:21.050Z,104021.59
2023-02-12T14:30:21.422Z,104004.31
2023-02-12T14:32:53.317Z,104007.63
2023-02-12T14:35:35.195Z,104004.59
2023-02-12T14:38:03.342Z,104001.59
2023-02-12T14:40:33.074Z,104001.81
2023-02-12T14:43:01.081Z,104006.78
2023-02-12T14:45:45.613Z,104011.25
2023-02-12T14:48:50.331Z,104008.25
2023-02-12T14:51:41.178Z,104000.72
2023-02-12T14:54:16.223Z,104009.72
2023-02-12T14:56:48.817Z,103999.56
2023-02-12T14:59:20.351Z,104002.41
2023-02-12T15:01:48.116Z,104001.84
2023-02-12T15:04:29.045Z,104009.00
2023-02-12T15:07:20.442Z,104004.50
2023-02-12T15:09:52.465Z,104011.41
2023-02-12T15:12:26.357Z,104014.88
2023-02-12T15:15:24.058Z,104011.41
2023-02-12T15:18:17.031Z,104007.94
2023-02-12T15:20:53.830Z,104003.47
2023-02-12T15:23:50.083Z,104007.94
2023-02-12T15:26:19.242Z,104003.09
2023-02-12T15:28:48.342Z,104005.97
2023-02-12T15:31:22.578Z,104008.25
2023-02-12T15:33:51.205Z,104007.88
2023-02-12T15:36:21.685Z,104001.22
2023-02-12T15:38:56.971Z,104002.59
2023-02-12T15:41:34.234Z,104005.47
2023-02-12T15:44:04.284Z,104000.16
2023-02-12T15:46:30.723Z,103994.88
2023-02-12T15:48:57.938Z,103994.88
2023-02-12T15:51:34.804Z,103992.00
2023-02-12T15:54:05.122Z,103988.31
2023-02-12T15:56:33.801Z,103991.19
2023-02-12T15:59:01.989Z,103989.56
2023-02-12T16:01:32.082Z,103994.06
2023-02-12T16:04:01.261Z,103987.13
2023-02-12T16:06:31.527Z,103989.78
2023-02-12T16:09:26.042Z,103991.63
2023-02-12T16:11:52.626Z,103985.50
2023-02-12T16:14:23.583Z,103986.78
2023-02-12T16:16:52.792Z,103984.56
2023-02-12T16:19:37.118Z,103987.66
2023-02-12T16:22:08.682Z,103984.41
2023-02-12T16:24:38.801Z,103990.31
2023-02-12T16:27:18.602Z,103984.63
2023-02-12T16:29:49.321Z,103989.13
2023-02-12T16:32:38.393Z,103984.06
2023-02-12T16:35:10.690Z,103981.03
2023-02-12T16:37:36.987Z,103982.88
2023-02-12T16:40:12.743Z,103980.44
2023-02-12T16:42:56.377Z,103984.94
2023-02-12T16:45:30.870Z,103992.28
2023-02-12T16:48:04.044Z,103995.59
2023-02-12T16:50:33.068Z,103993.38
2023-02-12T16:53:04.989Z,103995.66
2023-02-12T16:55:31.890Z,103999.56
2023-02-12T16:57:58.241Z,103989.78
2023-02-12T17:00:24.719Z,104000.16
2023-02-12T17:02:51.055Z,103994.28
2023-02-12T17:05:18.391Z,103994.50
2023-02-12T17:07:44.746Z,104001.25
2023-02-12T17:10:17.509Z,103996.19
2023-02-12T17:12:52.661Z,103994.91
2023-02-12T17:15:30.256Z,103997.94
2023-02-12T17:17:56.627Z,104000.44
2023-02-12T17:20:22.958Z,104004.13
2023-02-12T17:22:53.293Z,104010.16
2023-02-12T17:25:20.483Z,104011.63
2023-02-12T17:27:46.794Z,104005.34
2023-02-12T17:30:19.583Z,104007.78
2023-02-12T17:32:46.074Z,104005.13
2023-02-12T17:35:12.878Z,104009.84
2023-02-12T17:37:39.270Z,104003.97
2023-02-12T17:40:06.826Z,104013.13
2023-02-12T17:42:33.428Z,104018.50
2023-02-12T17:44:59.853Z,104023.19
2023-02-12T17:47:26.238Z,104020.56
2023-02-12T17:49:52.577Z,104015.69
2023-02-12T17:52:18.982Z,104022.81
2023-02-12T17:54:45.777Z,104024.66
2023-02-12T17:57:13.049Z,104026.28
2023-02-12T17:59:40.917Z,104026.03
2023-02-12T18:02:08.161Z,104027.69
2023-02-12T18:04:35.807Z,104022.00
2023-02-12T18:07:06.152Z,104024.88
2023-02-12T18:09:33.062Z,104029.38
2023-02-12T18:11:59.630Z,104025.06
2023-02-12T18:14:25.957Z,104025.69
2023-02-12T18:16:52.365Z,104025.88
2023-02-12T18:19:18.726Z,104035.66
2023-02-12T18:21:45.057Z,104034.03
2023-02-12T18:24:11.503Z,104035.06
2023-02-12T18:26:37.803Z,104037.13
2023-02-12T18:29:04.155Z,104037.13
2023-02-12T18:31:30.714Z,104035.31
2023-02-12T18:33:57.053Z,104035.31
2023-02-12T18:36:23.685Z,104037.13
2023-02-12T18:38:51.431Z,104035.50
2023-02-12T18:41:22.120Z,104031.47
2023-02-12T18:43:48.810Z,104031.69
2023-02-12T18:46:18.192Z,104030.88
2023-02-12T18:48:45.059Z,104035.56
2023-02-12T18:51:15.812Z,104030.47
2023-02-12T18:53:43.102Z,104022.53
2023-02-12T18:56:12.498Z,104034.75
2023-02-12T18:58:39.510Z,104024.16
2023-02-12T19:01:20.068Z,104022.53
2023-02-12T19:03:48.547Z,104020.13
2023-02-12T19:06:15.438Z,104018.88
2023-02-12T19:08:43.315Z,104018.66
2023-02-12T19:11:11.418Z,104019.31
2023-02-12T19:13:38.990Z,104019.72
2023-02-12T19:16:11.389Z,104026.84
2023-02-12T19:18:38.194Z,104021.34
2023-02-12T19:21:16.266Z,104028.25
2023-02-12T19:23:43.009Z,104027.25
2023-02-12T19:26:12.496Z,104017.25
2023-02-12T19:28:39.537Z,104026.22
2023-02-12T19:31:15.664Z,104014.38
2023-02-12T19:33:43.156Z,104015.19
2023-02-12T19:36:11.403Z,104016.22
2023-02-12T19:38:38.502Z,104007.94
2023-02-12T19:41:07.078Z,104016.66
2023-02-12T19:43:33.730Z,104008.34
2023-02-12T19:46:09.502Z,104004.31
2023-02-12T19:48:36.455Z,104003.47
2023-02-12T19:51:03.712Z,104009.59
2023-02-12T19:53:30.256Z,104005.91
2023-02-12T19:56:04.234Z,104004.09
2023-02-12T19:58:31.154Z,103997.97
2023-02-12T20:00:58.469Z,104005.13
2023-02-12T20:03:26.190Z,104000.81
2023-02-12T20:06:05.099Z,104001.84
2023-02-12T20:08:33.027Z,103997.81
2023-02-12T20:11:02.351Z,104001.50
2023-02-12T20:13:28.817Z,104002.31
2023-02-12T20:15:55.273Z,104000.69
2023-02-12T20:18:21.631Z,103999.84
2023-02-12T20:20:52.463Z,103998.22
2023-02-12T20:23:18.987Z,104003.97
2023-02-12T20:25:46.302Z,104000.53
2023-02-12T20:28:12.680Z,103998.06
2023-02-12T20:30:40.949Z,104003.34
2023-02-12T20:33:07.367Z,104000.72
2023-02-12T20:35:36.759Z,103999.91
2023-02-12T20:38:05.054Z,103994.25
2023-02-12T20:40:31.589Z,103999.53
2023-02-12T20:42:58.067Z,104000.34
2023-02-12T20:45:25.038Z,104000.34
2023-02-12T20:47:51.782Z,104002.38
2023-02-12T20:50:18.589Z,104005.81
2023-02-12T20:52:44.979Z,104005.03
2023-02-12T20:55:11.309Z,103999.94
2023-02-12T20:57:37.925Z,104002.38
2023-02-12T21:00:04.829Z,103999.53
2023-02-12T21:02:31.141Z,103996.91
2023-02-12T21:04:57.490Z,103998.72
2023-02-12T21:07:23.821Z,103994.25
2023-02-12T21:09:50.221Z,103997.47
2023-02-12T21:12:16.558Z,104004.38
2023-02-12T21:14:42.992Z,103993.81
2023-02-12T21:17:09.311Z,103994.03
2023-02-12T21:19:36.811Z,104000.34
2023-02-12T21:22:03.170Z,103997.91
2023-02-12T21:24:29.516Z,104001.56
2023-02-12T21:26:56.160Z,103994.44
2023-02-12T21:29:23.295Z,104006.06
2023-02-12T21:31:50.841Z,104005.47
2023-02-12T21:34:20.907Z,104000.41
2023-02-12T21:36:48.976Z,104000.41
2023-02-12T21:39:24.693Z,104008.91
2023-02-12T21:41:54.527Z,104002.22
2023-02-12T21:44:26.205Z,104002.81
2023-02-12T21:46:55.964Z,103997.75
2023-02-12T21:49:25.030Z,104001.00
2023-02-12T21:51:53.566Z,104001.00
2023-02-12T21:54:20.761Z,104002.59
2023-02-12T21:56:54.317Z,104008.47
2023-02-12T21:59:21.158Z,103997.91
2023-02-12T22:01:50.970Z,103994.66
2023-02-12T22:04:20.642Z,103998.34
2023-02-12T22:06:50.263Z,103999.16
2023-02-12T22:09:18.594Z,103990.81
2023-02-12T22:11:45.282Z,103993.69
2023-02-12T22:14:15.744Z,103990.47
2023-02-12T22:16:42.845Z,103985.16
2023-02-12T22:19:09.660Z,103984.38
2023-02-12T22:21:39.418Z,103979.88
2023-02-12T22:24:07.801Z,103968.50
2023-02-12T22:26:38.256Z,103975.63
2023-02-12T22:29:08.471Z,103977.44
2023-02-12T22:31:38.199Z,103978.03
2023-02-12T22:34:11.196Z,103974.38
2023-02-12T22:36:41.597Z,103975.19
2023-02-12T22:39:08.822Z,103978.84
2023-02-12T22:41:35.339Z,103972.13
2023-02-12T22:44:05.012Z,103977.44
2023-02-12T22:46:32.146Z,103978.28
2023-02-12T22:48:58.883Z,103981.09
2023-02-12T22:51:28.035Z,103987.41
2023-02-12T22:53:57.405Z,103983.75
2023-02-12T22:56:25.238Z,103976.44
2023-02-12T22:59:00.461Z,103975.63
2023-02-12T23:01:31.622Z,103982.72
2023-02-12T23:03:58.460Z,103979.06
2023-02-12T23:06:27.521Z,103979.25
2023-02-12T23:08:57.866Z,103981.31
2023-02-12T23:11:25.233Z,103978.91
2023-02-12T23:13:52.257Z,103983.16
2023-02-12T23:16:18.803Z,103976.03
2023-02-12T23:18:45.118Z,103975.81
2023-02-12T23:21:11.715Z,103982.13
2023-02-12T23:23:38.177Z,103980.53
2023-02-12T23:26:04.840Z,103969.34
2023-02-12T23:28:31.530Z,103978.91
2023-02-12T23:30:58.623Z,103972.81
2023-02-12T23:33:25.330Z,103969.34
2023-02-12T23:35:51.694Z,103959.78
2023-02-12T23:38:18.409Z,103963.44
2023-02-12T23:40:44.805Z,103956.13
2023-02-12T23:43:11.193Z,103956.56
2023-02-12T23:45:37.668Z,103960.22
2023-02-12T23:48:04.354Z,103954.13
2023-02-12T23:50:30.764Z,103944.34
2023-02-12T23:53:01.945Z,103948.03
2023-02-12T23:55:28.553Z,103944.59
2023-02-12T23:57:54.987Z,103941.94
